Time;durP1;ratioP1;P1;durP2;ratioP2;P2;SDS_P1;SDS_P2;PMS_P1;PMS_P2;Temp;Humidity;BMP_temperature;BMP_pressure;BME280_temperature;BME280_humidity;BME280_pressure;Samples;Min_cycle;Max_cycle;Signal;HPM_P1;HPM_P2
2021/12/29 00:01:50;;;;;;;5.43;4.40;;;;;;;9.04;100.00;99874.00;5082741;28;20026;-71
2021/12/29 00:04:16;;;;;;;5.20;3.45;;;;;;;9.04;100.00;99859.31;5085787;27;20039;-72
2021/12/29 00:06:42;;;;;;;5.95;4.10;;;;;;;9.05;100.00;99845.16;5089741;28;20024;-72
2021/12/29 00:09:07;;;;;;;4.57;3.70;;;;;;;9.07;100.00;99836.56;5122272;27;20065;-71
2021/12/29 00:11:38;;;;;;;5.18;3.10;;;;;;;9.07;100.00;99840.16;5060910;28;20024;-71
2021/12/29 00:14:04;;;;;;;6.47;3.53;;;;;;;9.07;100.00;99829.06;5080361;28;20100;-72
2021/12/29 00:16:34;;;;;;;5.43;3.28;;;;;;;9.09;100.00;99831.56;5088389;28;20053;-72
2021/12/29 00:19:00;;;;;;;4.80;3.13;;;;;;;9.10;100.00;99822.09;5107364;27;20387;-72
2021/12/29 00:21:26;;;;;;;4.20;3.10;;;;;;;9.10;100.00;99822.94;5068306;28;20114;-72
2021/12/29 00:23:51;;;;;;;4.72;3.25;;;;;;;9.11;100.00;99823.75;5086157;27;20122;-72
2021/12/29 00:26:17;;;;;;;5.97;3.13;;;;;;;9.12;100.00;99837.31;5081352;28;20032;-72
2021/12/29 00:28:43;;;;;;;6.90;3.60;;;;;;;9.12;100.00;99837.31;5082195;28;20040;-72
2021/12/29 00:31:08;;;;;;;6.60;3.30;;;;;;;9.14;100.00;99850.88;5071416;28;20031;-72
2021/12/29 00:33:34;;;;;;;4.68;2.70;;;;;;;9.15;100.00;99853.31;5091043;28;20376;-72
2021/12/29 00:35:59;;;;;;;5.40;3.30;;;;;;;9.16;100.00;99848.59;5090205;27;20062;-71
2021/12/29 00:38:25;;;;;;;4.57;2.85;;;;;;;9.15;100.00;99850.56;5082093;28;20036;-71
2021/12/29 00:40:50;;;;;;;5.68;2.67;;;;;;;9.18;100.00;99847.19;5066130;28;20035;-72
2021/12/29 00:43:16;;;;;;;5.18;3.13;;;;;;;9.20;100.00;99837.75;5102210;27;20027;-72
2021/12/29 00:45:42;;;;;;;6.85;2.83;;;;;;;9.21;100.00;99839.41;5079049;27;20403;-72
2021/12/29 00:48:11;;;;;;;5.20;2.83;;;;;;;9.21;100.00;99848.53;5056383;28;20031;-72
2021/12/29 00:50:36;;;;;;;6.00;2.95;;;;;;;9.22;100.00;99841.03;5050750;28;20464;-72
2021/12/29 00:53:02;;;;;;;6.30;3.17;;;;;;;9.24;100.00;99847.09;5060677;27;20081;-72
2021/12/29 00:55:28;;;;;;;7.85;3.53;;;;;;;9.25;100.00;99840.44;5075220;27;20447;-72
2021/12/29 00:57:53;;;;;;;6.80;3.00;;;;;;;9.27;100.00;99832.66;5089479;27;20032;-71
2021/12/29 01:00:21;;;;;;;5.07;3.13;;;;;;;9.28;100.00;99820.47;5096898;27;20023;-72
2021/12/29 01:02:47;;;;;;;5.97;3.28;;;;;;;9.31;100.00;99836.47;5061885;28;20113;-72
2021/12/29 01:05:14;;;;;;;7.00;3.13;;;;;;;9.33;100.00;99836.97;5061286;27;20027;-72
2021/12/29 01:07:40;;;;;;;7.50;2.70;;;;;;;9.33;100.00;99828.66;5069249;28;20672;-72
2021/12/29 01:10:06;;;;;;;7.60;3.13;;;;;;;9.36;100.00;99816.97;5084018;27;20122;-72
2021/12/29 01:12:32;;;;;;;6.00;2.78;;;;;;;9.36;100.00;99811.41;5095083;28;20491;-72
2021/12/29 01:14:58;;;;;;;7.07;2.80;;;;;;;9.37;100.00;99797.28;5071533;27;20038;-72
2021/12/29 01:17:24;;;;;;;9.07;2.97;;;;;;;9.39;100.00;99795.03;5074295;28;20024;-72
2021/12/29 01:19:50;;;;;;;6.78;2.80;;;;;;;9.43;100.00;99805.50;5070634;28;20119;-72
2021/12/29 01:22:16;;;;;;;7.35;2.80;;;;;;;9.45;100.00;99800.50;5081211;28;20019;-72
2021/12/29 01:24:43;;;;;;;7.50;2.33;;;;;;;9.47;100.00;99801.84;5067668;28;20039;-72
2021/12/29 01:27:09;;;;;;;7.75;2.60;;;;;;;9.47;100.00;99799.06;5076732;27;20084;-72
2021/12/29 01:29:34;;;;;;;8.38;2.40;;;;;;;9.51;100.00;99793.72;5069492;27;20047;-72
2021/12/29 01:32:00;;;;;;;8.32;2.53;;;;;;;9.51;100.00;99786.22;5096197;28;20049;-72
2021/12/29 01:34:25;;;;;;;8.65;2.72;;;;;;;9.54;100.00;99793.94;5096862;28;20061;-72
2021/12/29 01:36:51;;;;;;;9.77;2.25;;;;;;;9.56;100.00;99788.09;5080452;28;20034;-71
2021/12/29 01:39:17;;;;;;;8.82;2.60;;;;;;;9.59;100.00;99790.25;5081393;28;20024;-71
2021/12/29 01:41:42;;;;;;;8.07;2.50;;;;;;;9.62;100.00;99771.06;5062089;28;20023;-72
2021/12/29 01:44:09;;;;;;;11.57;2.63;;;;;;;9.63;100.00;99772.69;5084364;27;20032;-72
2021/12/29 01:46:34;;;;;;;9.80;2.42;;;;;;;9.67;100.00;99791.47;5064646;28;20030;-72
2021/12/29 01:49:01;;;;;;;8.55;2.72;;;;;;;9.70;100.00;99796.44;5079056;28;20032;-72
2021/12/29 01:51:29;;;;;;;9.60;2.30;;;;;;;9.73;100.00;99795.81;5068402;27;20039;-72
2021/12/29 01:56:56;;;;;;;7.72;2.40;;;;;;;9.78;100.00;99765.22;5041466;28;20036;-72
2021/12/29 01:59:22;;;;;;;16.92;2.47;;;;;;;9.81;100.00;99757.13;5019358;28;20051;-72
2021/12/29 02:01:47;;;;;;;12.02;2.13;;;;;;;9.84;100.00;99766.78;5008345;28;20540;-71
2021/12/29 02:04:13;;;;;;;7.75;1.83;;;;;;;9.85;100.00;99769.22;5028787;28;20041;-71
2021/12/29 02:06:38;;;;;;;9.05;2.50;;;;;;;9.88;100.00;99764.19;5005950;28;20493;-72
2021/12/29 02:09:04;;;;;;;10.18;2.17;;;;;;;9.92;100.00;99766.06;5019606;28;20033;-72
2021/12/29 02:11:30;;;;;;;15.93;2.38;;;;;;;9.92;100.00;99777.16;4994681;28;20128;-72
2021/12/29 02:14:03;;;;;;;10.50;2.40;;;;;;;9.95;100.00;99787.63;5014401;28;20248;-72
2021/12/29 02:16:29;;;;;;;10.05;2.00;;;;;;;9.97;100.00;99796.47;5006482;28;20037;-72
2021/12/29 02:18:59;;;;;;;10.63;1.92;;;;;;;10.00;100.00;99795.84;5040101;28;20403;-72
2021/12/29 02:21:26;;;;;;;7.75;2.13;;;;;;;10.03;100.00;99788.88;5026097;28;20088;-72
2021/12/29 02:26:30;;;;;;;9.80;1.58;;;;;;;10.07;100.00;99798.22;5009050;28;20040;-72
2021/12/29 02:28:56;;;;;;;11.52;1.75;;;;;;;10.12;100.00;99786.19;5019787;28;20058;-72
2021/12/29 02:31:25;;;;;;;10.70;2.00;;;;;;;10.15;100.00;99777.25;5025105;28;20059;-72
2021/12/29 02:33:51;;;;;;;11.00;1.60;;;;;;;10.16;100.00;99763.06;5084457;28;20122;-72
2021/12/29 02:36:17;;;;;;;9.75;1.77;;;;;;;10.17;100.00;99767.50;5079220;28;20058;-72
2021/12/29 02:38:48;;;;;;;7.88;1.45;;;;;;;10.19;100.00;99751.34;5089678;28;20031;-72
2021/12/29 02:41:13;;;;;;;5.35;1.20;;;;;;;10.21;100.00;99751.03;5064692;28;20052;-72
2021/12/29 02:43:40;;;;;;;5.97;1.33;;;;;;;10.24;100.00;99750.41;5082887;27;20038;-71
2021/12/29 02:46:13;;;;;;;8.75;1.67;;;;;;;10.27;100.00;99749.81;5058825;27;20034;-72
2021/12/29 02:48:44;;;;;;;7.55;1.58;;;;;;;10.27;100.00;99749.81;5066648;28;20030;-72
2021/12/29 02:51:10;;;;;;;7.38;1.38;;;;;;;10.28;100.00;99757.84;5084772;27;20028;-72
2021/12/29 02:53:35;;;;;;;8.75;1.55;;;;;;;10.33;100.00;99768.00;5090380;28;20373;-72
2021/12/29 02:56:02;;;;;;;9.68;1.20;;;;;;;10.32;100.00;99771.91;5078846;28;20024;-72
2021/12/29 02:58:28;;;;;;;5.70;1.20;;;;;;;10.35;100.00;99773.25;5082517;28;20382;-72
2021/12/29 03:00:55;;;;;;;4.45;1.10;;;;;;;10.38;100.00;99769.84;5058292;27;20019;-72
2021/12/29 03:03:21;;;;;;;5.47;1.00;;;;;;;10.39;100.00;99777.03;5087794;27;20072;-72
2021/12/29 03:05:47;;;;;;;5.78;1.20;;;;;;;10.40;100.00;99765.63;5089218;27;20023;-72
2021/12/29 03:08:13;;;;;;;7.60;1.25;;;;;;;10.42;100.00;99774.47;5102498;27;20062;-72
2021/12/29 03:10:39;;;;;;;6.60;1.10;;;;;;;10.43;100.00;99775.31;5068324;28;20028;-72
2021/12/29 03:13:04;;;;;;;3.67;0.75;;;;;;;10.42;100.00;99768.09;5081027;28;20040;-72
2021/12/29 03:15:30;;;;;;;3.50;0.82;;;;;;;10.44;100.00;99758.31;5076720;28;20069;-71
2021/12/29 03:17:55;;;;;;;2.78;0.70;;;;;;;10.47;100.00;99765.19;5067654;28;20034;-72
2021/12/29 03:20:21;;;;;;;6.18;1.25;;;;;;;10.48;100.00;99758.53;5060156;27;20633;-72
2021/12/29 03:22:46;;;;;;;2.83;0.60;;;;;;;10.48;100.00;99761.31;5077991;28;20020;-72
2021/12/29 03:25:12;;;;;;;1.60;0.70;;;;;;;10.49;100.00;99760.97;5067786;28;20034;-72
2021/12/29 03:27:37;;;;;;;2.70;0.68;;;;;;;10.53;100.00;99752.88;5082434;27;20031;-72
2021/12/29 03:30:03;;;;;;;3.13;0.70;;;;;;;10.53;100.00;99758.44;5080648;28;20047;-72
2021/12/29 03:32:42;;;;;;;3.30;0.57;;;;;;;10.51;100.00;99755.94;5080015;28;20039;-72
2021/12/29 03:35:09;;;;;;;3.08;0.65;;;;;;;10.53;100.00;99758.44;5071792;28;20383;-72
2021/12/29 03:37:34;;;;;;;3.10;0.43;;;;;;;10.53;100.00;99755.66;5080739;28;20028;-72
2021/12/29 03:40:00;;;;;;;2.45;0.52;;;;;;;10.56;100.00;99751.41;5042316;28;20073;-72
2021/12/29 03:42:25;;;;;;;0.82;0.50;;;;;;;10.55;100.00;99747.00;5088733;28;20611;-72
2021/12/29 03:44:51;;;;;;;0.98;0.40;;;;;;;10.57;100.00;99750.28;5098342;28;20027;-71
2021/12/29 03:47:16;;;;;;;3.00;0.50;;;;;;;10.58;100.00;99733.28;5049209;28;20020;-72
2021/12/29 03:49:42;;;;;;;2.28;0.77;;;;;;;10.60;100.00;99735.78;5084040;28;20061;-73
2021/12/29 03:52:07;;;;;;;2.25;0.50;;;;;;;10.61;100.00;99726.31;5075206;28;20073;-72
2021/12/29 03:54:33;;;;;;;0.95;0.38;;;;;;;10.62;100.00;99730.75;5048683;28;20031;-72
2021/12/29 03:57:01;;;;;;;1.58;0.52;;;;;;;10.64;100.00;99722.91;5056637;28;20391;-72
2021/12/29 03:59:30;;;;;;;2.67;0.40;;;;;;;10.65;100.00;99721.78;5093390;28;20031;-72
2021/12/29 04:01:56;;;;;;;1.98;0.52;;;;;;;10.66;100.00;99709.53;5058436;28;20032;-72
2021/12/29 04:04:21;;;;;;;3.88;0.50;;;;;;;10.68;100.00;99721.16;5081178;28;20032;-72
2021/12/29 04:06:47;;;;;;;4.95;3.42;;;;;;;10.69;100.00;99714.44;5089579;28;20019;-72
2021/12/29 04:09:12;;;;;;;4.22;1.35;;;;;;;10.70;100.00;99724.44;5061106;28;20051;-72
2021/12/29 04:11:38;;;;;;;3.40;1.70;;;;;;;10.71;100.00;99726.06;5097075;28;20479;-72
2021/12/29 04:14:03;;;;;;;4.50;2.20;;;;;;;10.71;100.00;99726.88;5072411;28;20039;-72
2021/12/29 04:16:29;;;;;;;1.98;1.50;;;;;;;10.71;100.00;99723.28;5100196;28;20031;-72
2021/12/29 04:19:14;;;;;;;3.53;2.72;;;;;;;10.73;100.00;99732.13;5077448;28;20032;-72
2021/12/29 04:21:40;;;;;;;3.28;2.00;;;;;;;10.73;100.00;99723.81;5083142;28;20023;-72
2021/12/29 04:24:05;;;;;;;2.88;1.60;;;;;;;10.74;100.00;99709.59;5068394;28;20664;-72
2021/12/29 04:26:33;;;;;;;1.98;1.50;;;;;;;10.76;100.00;99720.41;5093861;28;20034;-72
2021/12/29 04:28:58;;;;;;;2.00;1.05;;;;;;;10.78;100.00;99720.91;5079360;28;20449;-72
2021/12/29 04:31:24;;;;;;;2.58;1.00;;;;;;;10.78;100.00;99729.25;5078876;28;20031;-72
2021/12/29 04:33:49;;;;;;;1.38;1.00;;;;;;;10.79;100.00;99717.00;5115223;27;20026;-72
2021/12/29 04:36:15;;;;;;;1.73;1.13;;;;;;;10.81;100.00;99725.00;5119962;27;20028;-72
2021/12/29 04:38:41;;;;;;;1.75;1.08;;;;;;;10.82;100.00;99730.25;5078101;28;20031;-72
2021/12/29 04:41:06;;;;;;;2.30;1.27;;;;;;;10.81;100.00;99713.88;5082460;28;20029;-72
2021/12/29 04:43:32;;;;;;;1.60;0.90;;;;;;;10.82;100.00;99709.97;5100079;27;20436;-72
2021/12/29 04:45:57;;;;;;;2.55;0.88;;;;;;;10.82;100.00;99716.34;5101677;27;20023;-72
2021/12/29 04:48:24;;;;;;;2.15;0.70;;;;;;;10.82;100.00;99721.91;5099731;28;20031;-72
2021/12/29 04:51:03;;;;;;;0.90;0.73;;;;;;;10.83;100.00;99731.06;5088563;27;20491;-72
2021/12/29 04:53:28;;;;;;;1.38;0.80;;;;;;;10.84;100.00;99735.50;5108334;27;20031;-72
2021/12/29 04:55:55;;;;;;;1.05;0.70;;;;;;;10.84;100.00;99730.75;5086460;27;20034;-72
2021/12/29 04:58:21;;;;;;;1.80;0.60;;;;;;;10.84;100.00;99727.97;5101284;27;20027;-73
2021/12/29 05:00:47;;;;;;;0.95;0.85;;;;;;;10.85;100.00;99726.84;5099259;27;20046;-72
2021/12/29 05:03:13;;;;;;;2.15;0.60;;;;;;;10.84;100.00;99739.09;5089407;27;20391;-73
2021/12/29 05:05:51;;;;;;;1.63;0.50;;;;;;;10.87;100.00;99738.47;5092460;27;20038;-72
2021/12/29 05:08:26;;;;;;;1.60;0.82;;;;;;;10.88;100.00;99737.31;5085340;27;20041;-72
2021/12/29 05:10:59;;;;;;;2.67;0.60;;;;;;;10.88;100.00;99740.09;5087197;27;20092;-72
2021/12/29 05:13:25;;;;;;;2.53;0.60;;;;;;;10.90;100.00;99739.78;5086053;27;20106;-72
2021/12/29 05:15:51;;;;;;;1.08;0.80;;;;;;;10.89;100.00;99727.88;5088057;27;20073;-72
2021/12/29 05:18:16;;;;;;;2.28;0.60;;;;;;;10.91;100.00;99742.22;5090741;27;20051;-72
2021/12/29 05:20:42;;;;;;;0.60;0.60;;;;;;;10.91;100.00;99744.19;5085539;27;20031;-72
2021/12/29 05:23:08;;;;;;;2.00;0.70;;;;;;;10.92;100.00;99738.34;5100876;27;20036;-72
2021/12/29 05:25:33;;;;;;;1.42;0.52;;;;;;;10.93;100.00;99755.81;5086398;27;20706;-72
2021/12/29 05:27:59;;;;;;;4.68;0.70;;;;;;;10.97;100.00;99751.25;5107869;27;20061;-72
2021/12/29 05:30:24;;;;;;;2.20;0.60;;;;;;;10.98;100.00;99741.81;5100260;27;20055;-72
2021/12/29 05:32:50;;;;;;;1.73;0.70;;;;;;;11.00;100.00;99755.38;5098289;28;20031;-72
2021/12/29 05:35:15;;;;;;;1.20;0.50;;;;;;;10.98;100.00;99752.09;5064333;28;20031;-72
2021/12/29 05:37:41;;;;;;;2.05;0.73;;;;;;;11.03;100.00;99743.63;5083212;28;20087;-72
2021/12/29 05:40:08;;;;;;;0.98;0.57;;;;;;;11.02;100.00;99744.78;5092293;27;20081;-72
2021/12/29 05:42:34;;;;;;;1.55;0.50;;;;;;;11.03;100.00;99768.63;5072697;28;20106;-72
2021/12/29 05:45:04;;;;;;;1.30;0.60;;;;;;;11.04;100.00;99759.19;5077473;28;20026;-72
2021/12/29 05:47:29;;;;;;;2.20;0.50;;;;;;;11.05;100.00;99760.81;5048945;28;20552;-72
2021/12/29 05:49:55;;;;;;;2.00;0.80;;;;;;;11.05;100.00;99758.84;5081629;27;20028;-72
2021/12/29 05:52:20;;;;;;;1.08;0.60;;;;;;;11.05;100.00;99750.50;5103779;27;20023;-72
2021/12/29 05:54:45;;;;;;;2.08;0.63;;;;;;;11.06;100.00;99740.22;5080655;28;20043;-72
2021/12/29 05:57:11;;;;;;;3.55;0.50;;;;;;;11.07;100.00;99744.66;5066935;28;20048;-72
2021/12/29 05:59:36;;;;;;;1.70;0.50;;;;;;;11.08;100.00;99762.97;5107875;27;20593;-72
2021/12/29 06:02:02;;;;;;;1.90;0.60;;;;;;;11.07;100.00;99767.69;5062400;28;20030;-72
2021/12/29 06:04:28;;;;;;;1.05;0.60;;;;;;;11.08;100.00;99768.50;5066401;27;20023;-72
2021/12/29 06:06:53;;;;;;;1.85;0.52;;;;;;;11.09;100.00;99773.78;5068636;28;20036;-72
2021/12/29 06:09:19;;;;;;;0.90;0.70;;;;;;;11.08;100.00;99780.44;5085063;27;20028;-72
2021/12/29 06:11:44;;;;;;;1.35;0.60;;;;;;;11.10;100.00;99782.91;5085875;27;20038;-72
2021/12/29 06:14:10;;;;;;;2.15;0.60;;;;;;;11.12;100.00;99775.09;5072872;28;20484;-72
2021/12/29 06:16:36;;;;;;;1.75;0.52;;;;;;;11.12;100.00;99772.31;5094299;28;20431;-72
2021/12/29 06:19:01;;;;;;;1.55;0.70;;;;;;;11.13;100.00;99785.88;5081079;27;20086;-72
2021/12/29 06:21:27;;;;;;;1.95;0.80;;;;;;;11.14;100.00;99792.25;5072859;28;20026;-72
2021/12/29 06:23:52;;;;;;;0.82;0.47;;;;;;;11.15;100.00;99783.63;5048213;27;20488;-72
2021/12/29 06:26:18;;;;;;;1.80;0.70;;;;;;;11.16;100.00;99803.88;5100059;28;20028;-72
2021/12/29 06:28:44;;;;;;;1.00;0.60;;;;;;;11.18;100.00;99796.06;5096853;28;20476;-72
2021/12/29 06:31:09;;;;;;;1.42;0.70;;;;;;;11.19;100.00;99806.84;5063969;28;20032;-72
2021/12/29 06:33:35;;;;;;;2.22;0.70;;;;;;;11.19;100.00;99806.03;5081002;28;20031;-72
2021/12/29 06:36:00;;;;;;;2.88;0.50;;;;;;;11.20;100.00;99791.03;5061049;28;20024;-72
2021/12/29 06:38:26;;;;;;;1.35;0.50;;;;;;;11.23;100.00;99786.75;5079973;28;20388;-72
2021/12/29 06:40:51;;;;;;;1.48;0.63;;;;;;;11.23;100.00;99803.44;5074521;28;20035;-72
2021/12/29 06:43:17;;;;;;;2.25;0.68;;;;;;;11.24;100.00;99810.66;5084991;28;20032;-72
2021/12/29 06:45:42;;;;;;;2.47;0.80;;;;;;;11.26;100.00;99811.97;5080599;28;20024;-72
2021/12/29 06:48:08;;;;;;;1.67;0.80;;;;;;;11.26;100.00;99816.72;5074698;28;20040;-72
2021/12/29 06:50:33;;;;;;;2.35;0.95;;;;;;;11.30;100.00;99824.09;5098700;28;20031;-72
2021/12/29 06:52:59;;;;;;;2.92;0.80;;;;;;;11.30;100.00;99814.94;5057191;28;20063;-72
2021/12/29 06:55:24;;;;;;;1.77;0.85;;;;;;;11.30;100.00;99801.88;5073231;28;20115;-72
2021/12/29 06:57:50;;;;;;;2.85;0.75;;;;;;;11.29;100.00;99819.69;5047815;28;20028;-72
2021/12/29 07:00:15;;;;;;;3.45;1.02;;;;;;;11.32;100.00;99805.16;5061813;28;20035;-72
2021/12/29 07:02:41;;;;;;;3.92;1.20;;;;;;;11.32;100.00;99821.84;5045585;28;20062;-72
2021/12/29 07:05:07;;;;;;;2.67;1.10;;;;;;;11.31;100.00;99834.09;5048294;28;20109;-72
2021/12/29 07:07:32;;;;;;;2.60;0.90;;;;;;;11.33;100.00;99844.88;5090940;28;20034;-72
2021/12/29 07:09:58;;;;;;;3.80;1.00;;;;;;;11.35;100.00;99848.19;5063452;28;20028;-72
2021/12/29 07:12:23;;;;;;;2.72;1.13;;;;;;;11.35;100.00;99846.22;5073130;28;20036;-72
2021/12/29 07:14:49;;;;;;;1.83;0.80;;;;;;;11.36;100.00;99847.03;5062285;28;20450;-72
2021/12/29 07:17:14;;;;;;;3.15;1.08;;;;;;;11.38;100.00;99850.34;5061268;28;20024;-72
2021/12/29 07:19:40;;;;;;;7.10;1.40;;;;;;;11.43;100.00;99857.72;5043417;28;20048;-72
2021/12/29 07:22:06;;;;;;;5.90;1.00;;;;;;;11.41;100.00;99849.69;5061024;28;20058;-73
2021/12/29 07:24:32;;;;;;;5.20;0.90;;;;;;;11.41;100.00;99860.81;5052718;28;20024;-72
2021/12/29 07:26:57;;;;;;;3.92;0.90;;;;;;;11.44;100.00;99864.94;5057769;28;20073;-72
2021/12/29 07:29:23;;;;;;;3.17;1.00;;;;;;;11.44;100.00;99853.81;5082549;28;20093;-72
2021/12/29 07:31:50;;;;;;;4.97;1.02;;;;;;;11.46;100.00;99857.09;5082565;28;20047;-72
2021/12/29 07:34:16;;;;;;;5.22;1.20;;;;;;;11.46;100.00;99851.53;5058390;28;20035;-72
2021/12/29 07:36:41;;;;;;;3.13;0.82;;;;;;;11.48;100.00;99857.59;5095068;28;20028;-73
2021/12/29 07:39:10;;;;;;;5.90;1.10;;;;;;;11.49;100.00;99862.03;5093909;28;20038;-71
2021/12/29 07:41:36;;;;;;;6.00;1.00;;;;;;;11.49;100.00;99859.25;5076448;28;20026;-71
2021/12/29 07:44:03;;;;;;;5.88;1.30;;;;;;;11.50;100.00;99855.31;5063016;28;20085;-71
2021/12/29 07:46:33;;;;;;;2.35;1.10;;;;;;;11.51;100.00;99857.78;5089150;28;20542;-71
2021/12/29 07:48:59;;;;;;;7.65;1.00;;;;;;;11.51;100.00;99859.75;5089988;28;20050;-71
2021/12/29 07:51:24;;;;;;;6.43;0.90;;;;;;;11.50;100.00;99864.47;5044660;28;20488;-71
2021/12/29 07:53:50;;;;;;;4.05;0.90;;;;;;;11.53;100.00;99861.09;5077823;28;20105;-71
2021/12/29 07:56:16;;;;;;;4.18;1.08;;;;;;;11.54;100.00;99876.63;5068235;28;20024;-71
2021/12/29 07:58:42;;;;;;;3.50;1.10;;;;;;;11.54;100.00;99873.03;5093404;28;20121;-71
2021/12/29 08:01:08;;;;;;;4.82;0.70;;;;;;;11.57;100.00;99877.97;5094587;28;20040;-71
2021/12/29 08:03:33;;;;;;;3.55;0.73;;;;;;;11.57;100.00;99878.78;5077613;28;20028;-71
2021/12/29 08:06:00;;;;;;;6.22;0.75;;;;;;;11.57;100.00;99876.00;5074776;28;20055;-71
2021/12/29 08:08:25;;;;;;;5.20;0.93;;;;;;;11.57;100.00;99884.34;5061323;28;20028;-71
2021/12/29 08:10:51;;;;;;;5.07;1.08;;;;;;;11.60;100.00;99880.91;5072755;28;20034;-71
2021/12/29 08:13:17;;;;;;;3.95;0.98;;;;;;;11.60;100.00;99886.47;5109019;28;20032;-71
2021/12/29 08:15:42;;;;;;;3.50;0.80;;;;;;;11.62;100.00;99894.53;5112314;28;20044;-71
2021/12/29 08:18:07;;;;;;;4.85;1.45;;;;;;;11.62;100.00;99909.25;5087983;28;20047;-71
2021/12/29 08:20:35;;;;;;;4.07;0.80;;;;;;;11.64;100.00;99917.25;5088629;28;20058;-71
2021/12/29 08:23:01;;;;;;;5.35;0.82;;;;;;;11.64;100.00;99925.59;5091651;28;20046;-71
2021/12/29 08:25:27;;;;;;;2.65;0.85;;;;;;;11.66;100.00;99937.25;5112438;27;20110;-71
2021/12/29 08:27:52;;;;;;;6.65;0.95;;;;;;;11.68;100.00;99931.38;5116008;28;20035;-71
2021/12/29 08:30:18;;;;;;;7.07;0.95;;;;;;;11.66;100.00;99928.91;5082738;28;20048;-71
2021/12/29 08:32:44;;;;;;;4.80;1.15;;;;;;;11.69;100.00;99925.47;5098128;28;20046;-71
2021/12/29 08:35:09;;;;;;;3.33;0.90;;;;;;;11.73;100.00;99920.09;5093000;28;20106;-71
2021/12/29 08:37:35;;;;;;;3.53;1.10;;;;;;;11.71;100.00;99920.44;5097606;27;20035;-71
2021/12/29 08:40:02;;;;;;;3.92;1.15;;;;;;;11.73;100.00;99939.56;5112248;28;20043;-71
2021/12/29 08:42:28;;;;;;;8.35;1.40;;;;;;;11.72;100.00;99952.66;5083792;28;20020;-71
2021/12/29 08:44:53;;;;;;;5.93;1.20;;;;;;;11.76;100.00;99947.31;5093742;28;20495;-71
2021/12/29 08:47:19;;;;;;;5.22;1.00;;;;;;;11.75;100.00;99954.81;5083606;28;20548;-71
2021/12/29 08:49:45;;;;;;;5.13;1.00;;;;;;;11.76;100.00;99950.91;5098425;28;20081;-71
2021/12/29 08:52:10;;;;;;;3.95;0.90;;;;;;;11.78;100.00;99957.00;5096842;28;20031;-71
2021/12/29 08:54:37;;;;;;;4.00;0.80;;;;;;;11.78;100.00;99961.69;5096108;28;20047;-71
2021/12/29 08:57:02;;;;;;;2.67;0.80;;;;;;;11.78;100.00;99948.63;5053119;28;20047;-71
2021/12/29 08:59:28;;;;;;;5.97;1.05;;;;;;;11.80;100.00;99957.47;5071287;28;20411;-71
2021/12/29 09:01:54;;;;;;;4.20;0.70;;;;;;;11.83;100.00;99961.59;5078977;28;20071;-71
2021/12/29 09:04:20;;;;;;;6.65;1.00;;;;;;;11.84;100.00;99966.84;5095332;28;20031;-71
2021/12/29 09:06:45;;;;;;;3.50;0.80;;;;;;;11.85;100.00;99974.06;5081748;28;20054;-71
2021/12/29 09:09:11;;;;;;;2.92;0.80;;;;;;;11.87;100.00;99986.84;5085389;28;20024;-71
2021/12/29 09:11:36;;;;;;;6.25;1.17;;;;;;;11.88;100.00;99983.75;5090297;28;20444;-71
2021/12/29 09:14:02;;;;;;;2.67;0.75;;;;;;;11.90;100.00;99989.03;5083974;28;20032;-71
2021/12/29 09:16:28;;;;;;;1.73;0.75;;;;;;;11.91;100.00;99985.09;5093017;28;20032;-71
2021/12/29 09:18:53;;;;;;;4.05;0.95;;;;;;;11.92;100.00;99981.97;5082746;28;20501;-71
2021/12/29 09:21:19;;;;;;;5.38;0.80;;;;;;;11.96;100.00;99971.06;5064005;28;20027;-71
2021/12/29 09:23:45;;;;;;;3.00;1.02;;;;;;;11.96;100.00;99974.66;5064659;28;20081;-71
2021/12/29 09:26:15;;;;;;;2.50;0.77;;;;;;;12.00;100.00;99972.03;5096359;28;20712;-71
2021/12/29 09:28:41;;;;;;;2.17;0.82;;;;;;;12.02;100.00;99986.47;5099203;27;20519;-71
2021/12/29 09:31:07;;;;;;;3.05;0.85;;;;;;;12.04;100.00;99987.00;5097214;27;20091;-71
2021/12/29 09:33:33;;;;;;;3.38;0.75;;;;;;;12.06;100.00;99993.03;5103633;27;20031;-71
2021/12/29 09:36:02;;;;;;;3.03;0.80;;;;;;;12.10;100.00;99988.50;5097790;28;20031;-71
2021/12/29 09:38:29;;;;;;;3.72;0.80;;;;;;;12.12;100.00;99991.81;5088799;27;20049;-71
2021/12/29 09:40:54;;;;;;;1.65;0.80;;;;;;;12.15;100.00;99991.16;5085734;28;20038;-71
2021/12/29 09:43:20;;;;;;;4.72;0.90;;;;;;;12.20;100.00;100002.16;5095523;27;20019;-71
2021/12/29 09:45:46;;;;;;;4.30;0.85;;;;;;;12.23;100.00;100004.31;5086098;27;20084;-71
2021/12/29 09:48:12;;;;;;;5.38;0.98;;;;;;;12.28;100.00;100006.13;5067074;27;20032;-71
2021/12/29 09:50:38;;;;;;;3.85;0.82;;;;;;;12.33;100.00;100010.75;5095506;28;20509;-71
2021/12/29 09:53:04;;;;;;;3.40;0.80;;;;;;;12.33;100.00;100014.34;5082737;27;20538;-71
2021/12/29 09:55:29;;;;;;;3.38;0.80;;;;;;;12.38;100.00;100024.56;5119194;27;20035;-71
2021/12/29 09:57:56;;;;;;;3.22;0.70;;;;;;;12.40;100.00;100020.31;5097496;28;20096;-71
2021/12/29 10:00:28;;;;;;;3.20;0.70;;;;;;;12.43;100.00;100013.28;5087411;27;20035;-71
2021/12/29 10:02:55;;;;;;;1.67;0.85;;;;;;;12.43;100.00;100022.47;5083597;27;20027;-71
2021/12/29 10:05:21;;;;;;;1.73;0.60;;;;;;;12.48;100.00;100015.91;5096010;28;20077;-71
2021/12/29 10:08:05;;;;;;;3.33;0.52;;;;;;;12.48;100.00;100018.69;5101911;27;20031;-71
2021/12/29 10:10:32;;;;;;;4.30;0.80;;;;;;;12.49;100.00;100021.19;5117319;27;20410;-71
2021/12/29 10:12:58;;;;;;;3.10;0.80;;;;;;;12.52;100.00;100026.09;5098354;27;20483;-71
2021/12/29 10:15:38;;;;;;;3.08;0.80;;;;;;;12.54;100.00;100025.81;5102650;27;20023;-71
2021/12/29 10:18:07;;;;;;;2.17;0.60;;;;;;;12.59;100.00;100035.97;5116368;27;20023;-71
2021/12/29 10:20:42;;;;;;;5.78;0.50;;;;;;;12.60;100.00;100044.03;5095570;27;20099;-71
2021/12/29 10:23:09;;;;;;;2.88;0.80;;;;;;;12.64;100.00;100058.94;5094743;28;20119;-71
2021/12/29 10:25:34;;;;;;;2.65;0.82;;;;;;;12.66;100.00;100067.81;5107514;27;20027;-71
2021/12/29 10:28:01;;;;;;;5.70;1.08;;;;;;;12.70;100.00;100082.75;5136557;27;20060;-71
2021/12/29 10:30:31;;;;;;;5.55;0.93;;;;;;;12.73;100.00;100075.69;5091809;28;20058;-71
2021/12/29 10:32:58;;;;;;;3.28;0.77;;;;;;;12.71;100.00;100076.03;5096141;28;20035;-71
2021/12/29 10:35:28;;;;;;;2.72;0.68;;;;;;;12.72;100.00;100072.09;5097264;27;20050;-71
2021/12/29 10:38:09;;;;;;;2.63;0.80;;;;;;;12.71;100.00;100087.19;5102924;28;20031;-71
2021/12/29 10:40:35;;;;;;;6.90;1.30;;;;;;;12.75;100.00;100079.00;5083598;27;20453;-70
2021/12/29 10:43:00;;;;;;;3.80;0.70;;;;;;;12.77;100.00;100078.69;5081614;28;20023;-71
2021/12/29 10:45:33;;;;;;;3.40;0.90;;;;;;;12.77;100.00;100073.94;5099567;27;20035;-71
2021/12/29 10:47:59;;;;;;;;;;;;;;;12.79;100.00;100081.97;5084462;28;20066;-71
2021/12/29 10:50:26;;;;;;;2.63;0.70;;;;;;;12.78;100.00;100088.69;5099349;28;19907;-71
2021/12/29 10:52:57;;;;;;;6.35;1.00;;;;;;;12.78;100.00;100086.72;5095117;28;20042;-71
2021/12/29 10:55:31;;;;;;;4.18;0.70;;;;;;;12.79;100.00;100081.97;5067370;28;20027;-71
2021/12/29 10:58:16;;;;;;;5.03;1.00;;;;;;;12.82;100.00;100087.75;5063636;27;20031;-71
2021/12/29 11:00:55;;;;;;;4.38;0.80;;;;;;;12.83;100.00;100094.13;5059068;28;20050;-71
2021/12/29 11:03:22;;;;;;;3.15;0.95;;;;;;;12.84;100.00;100084.63;5058240;28;20027;-72
2021/12/29 11:05:50;;;;;;;3.58;0.90;;;;;;;12.85;100.00;100078.75;5095650;27;20063;-71
2021/12/29 11:08:16;;;;;;;7.32;1.08;;;;;;;12.87;100.00;100100.69;5093905;28;20035;-71
2021/12/29 11:10:43;;;;;;;8.32;1.20;;;;;;;12.87;100.00;100093.19;5081685;27;20041;-71
2021/12/29 11:13:09;;;;;;;4.82;1.05;;;;;;;12.89;100.00;100099.25;5078379;28;20028;-71
2021/12/29 11:15:38;;;;;;;5.50;1.23;;;;;;;12.91;100.00;100108.09;5095071;28;20032;-71
2021/12/29 11:18:10;;;;;;;4.85;0.70;;;;;;;12.92;100.00;100104.16;5080129;28;20380;-71
2021/12/29 11:20:36;;;;;;;4.93;1.27;;;;;;;12.94;100.00;100101.06;5079689;28;20028;-71
2021/12/29 11:23:08;;;;;;;6.47;1.10;;;;;;;12.98;100.00;100102.06;5039069;28;20067;-71
2021/12/29 11:25:33;;;;;;;4.35;0.90;;;;;;;13.00;100.00;100107.34;5112485;28;20034;-71
2021/12/29 11:28:00;;;;;;;7.13;1.05;;;;;;;13.01;100.00;100108.97;5063434;28;20388;-71